Time;durP1;ratioP1;P1;durP2;ratioP2;P2;SDS_P1;SDS_P2;PMS_P1;PMS_P2;Temp;Humidity;BMP_temperature;BMP_pressure;BME280_temperature;BME280_humidity;BME280_pressure;Samples;Min_cycle;Max_cycle;Signal;HPM_P1;HPM_P2
2023/01/17 00:01:06;;;;;;;6.70;6.40;;;2.40;99.90;;;;;;5021408;28;20653;-65
2023/01/17 00:03:33;;;;;;;7.07;6.77;;;2.30;99.90;;;;;;5011921;28;20196;-65
2023/01/17 00:11:27;;;;;;;7.27;6.97;;;2.20;99.90;;;;;;5018051;28;20277;-64
2023/01/17 00:13:52;;;;;;;6.90;6.60;;;2.20;99.90;;;;;;5012004;28;20258;-64
2023/01/17 00:16:18;;;;;;;7.17;6.87;;;2.30;99.90;;;;;;5023075;28;20187;-64
2023/01/17 00:26:01;;;;;;;6.83;6.53;;;2.40;99.90;;;;;;5031553;28;20635;-64
2023/01/17 01:33:36;;;;;;;6.40;6.10;;;2.90;99.90;;;;;;5025097;28;20207;-64
2023/01/17 01:36:01;;;;;;;5.90;5.70;;;3.00;99.90;;;;;;5014541;28;20537;-64
2023/01/17 01:38:27;;;;;;;6.50;6.20;;;2.90;99.90;;;;;;5020869;28;20184;-63
2023/01/17 01:40:55;;;;;;;5.70;5.50;;;2.90;99.90;;;;;;5033854;28;20218;-64
2023/01/17 01:43:38;;;;;;;6.37;6.07;;;2.90;99.90;;;;;;5027799;28;20269;-64
2023/01/17 01:46:04;;;;;;;6.83;6.53;;;2.90;99.90;;;;;;5014315;28;20187;-64
2023/01/17 01:48:39;;;;;;;6.53;6.20;;;2.90;99.90;;;;;;5021119;28;20206;-64
2023/01/17 01:51:13;;;;;;;6.30;6.03;;;2.90;99.90;;;;;;5027089;28;20175;-64
2023/01/17 01:53:43;;;;;;;6.67;6.17;;;2.90;99.90;;;;;;5014042;28;20262;-64
2023/01/17 01:56:12;;;;;;;6.00;5.80;;;2.90;99.90;;;;;;5019520;28;20175;-64
2023/01/17 01:58:40;;;;;;;6.10;5.90;;;2.90;99.90;;;;;;5032787;28;20258;-64
2023/01/17 02:01:09;;;;;;;6.80;6.30;;;2.90;99.90;;;;;;5033069;28;20696;-64
2023/01/17 02:03:37;;;;;;;6.60;6.30;;;2.90;99.90;;;;;;5033251;28;20187;-64
2023/01/17 02:06:26;;;;;;;6.93;6.63;;;2.80;99.90;;;;;;5013920;28;20176;-64
2023/01/17 02:08:52;;;;;;;6.43;6.13;;;2.80;99.90;;;;;;5011951;28;20223;-64
2023/01/17 02:11:18;;;;;;;6.10;5.77;;;2.80;99.90;;;;;;5031617;28;20613;-64
2023/01/17 02:13:43;;;;;;;7.27;6.97;;;2.80;99.90;;;;;;5033104;28;20183;-64
2023/01/17 02:16:25;;;;;;;8.57;8.17;;;2.80;99.90;;;;;;5013924;28;20196;-64
2023/01/17 02:19:15;;;;;;;6.37;6.17;;;2.90;99.90;;;;;;5014654;28;20211;-64
2023/01/17 02:21:52;;;;;;;6.87;6.57;;;2.90;99.90;;;;;;5004214;28;20191;-64
2023/01/17 02:24:27;;;;;;;6.40;6.00;;;3.00;99.90;;;;;;5013551;28;20195;-64
2023/01/17 02:27:16;;;;;;;6.53;5.40;;;3.00;99.90;;;;;;5013422;28;20720;-64
2023/01/17 02:30:20;;;;;;;6.70;6.30;;;3.00;99.90;;;;;;5013354;28;20669;-64
2023/01/17 02:33:13;;;;;;;8.90;8.27;;;3.00;99.90;;;;;;5013072;28;20195;-64
2023/01/17 02:36:06;;;;;;;7.40;7.10;;;2.90;99.90;;;;;;5028929;28;20172;-64
2023/01/17 02:38:51;;;;;;;6.60;6.30;;;2.90;99.90;;;;;;5032930;28;20203;-64
2023/01/17 02:41:21;;;;;;;6.67;6.37;;;2.90;99.90;;;;;;4993403;28;20541;-64
2023/01/17 02:43:51;;;;;;;7.83;7.10;;;2.90;99.90;;;;;;4993413;28;20216;-64
2023/01/17 02:46:16;;;;;;;6.47;6.23;;;2.80;99.90;;;;;;5030712;28;20186;-64
2023/01/17 02:48:43;;;;;;;6.50;6.20;;;2.80;99.90;;;;;;5032507;28;20203;-64
2023/01/17 02:51:15;;;;;;;6.03;5.83;;;2.80;99.90;;;;;;5013965;28;20268;-64
2023/01/17 02:53:46;;;;;;;9.27;8.87;;;2.80;99.90;;;;;;5012852;28;20615;-64
2023/01/17 02:56:39;;;;;;;6.20;5.90;;;2.80;99.90;;;;;;5031085;28;20230;-64
2023/01/17 02:59:29;;;;;;;6.10;5.87;;;2.80;99.90;;;;;;5032085;28;20172;-64
2023/01/17 03:02:21;;;;;;;10.33;9.73;;;2.80;99.90;;;;;;5015397;28;20172;-65
2023/01/17 03:05:04;;;;;;;6.70;6.40;;;2.70;99.90;;;;;;5030857;28;20202;-64
2023/01/17 03:07:31;;;;;;;6.87;6.57;;;2.70;99.90;;;;;;5033319;28;20641;-64
2023/01/17 03:10:01;;;;;;;6.33;6.03;;;2.70;99.90;;;;;;5026058;28;20207;-64
2023/01/17 03:12:31;;;;;;;6.50;6.20;;;2.70;99.90;;;;;;5014610;28;20191;-64
2023/01/17 03:14:57;;;;;;;6.40;6.10;;;2.70;99.90;;;;;;5031144;28;20171;-65
2023/01/17 03:17:27;;;;;;;6.93;6.57;;;2.70;99.90;;;;;;5030939;28;20172;-65
2023/01/17 03:19:52;;;;;;;7.07;6.57;;;2.70;99.90;;;;;;5012795;28;20582;-64
2023/01/17 03:22:18;;;;;;;8.20;7.70;;;2.70;99.90;;;;;;5011614;28;20195;-64
2023/01/17 03:24:44;;;;;;;7.30;7.00;;;2.70;99.90;;;;;;5031649;28;20536;-65
2023/01/17 03:27:09;;;;;;;7.20;6.83;;;2.60;99.90;;;;;;5032165;28;20160;-64
2023/01/17 03:29:35;;;;;;;7.07;6.67;;;2.60;99.90;;;;;;5013214;28;20736;-64
2023/01/17 03:32:00;;;;;;;7.20;6.80;;;2.40;99.90;;;;;;5012229;28;20204;-64
2023/01/17 03:34:26;;;;;;;8.37;7.17;;;2.60;99.90;;;;;;5028183;28;20182;-64
2023/01/17 03:36:51;;;;;;;8.13;7.73;;;2.60;99.90;;;;;;5031847;28;20176;-64
2023/01/17 03:39:17;;;;;;;7.47;7.17;;;2.60;99.90;;;;;;5017069;28;20184;-64
2023/01/17 03:41:43;;;;;;;7.47;6.90;;;2.50;99.90;;;;;;5023874;28;20195;-64
2023/01/17 03:44:08;;;;;;;7.70;7.30;;;2.50;99.90;;;;;;5021239;28;20211;-64
2023/01/17 03:46:35;;;;;;;8.50;8.00;;;2.50;99.90;;;;;;5012200;28;20210;-64
2023/01/17 03:49:00;;;;;;;7.67;7.17;;;2.50;99.90;;;;;;5020820;28;20210;-64
2023/01/17 03:51:26;;;;;;;8.37;7.97;;;2.50;99.90;;;;;;5031519;28;20246;-64
2023/01/17 03:53:52;;;;;;;7.27;6.97;;;2.50;99.90;;;;;;5030009;28;20183;-64
2023/01/17 03:56:17;;;;;;;7.23;6.87;;;2.50;99.90;;;;;;5031713;28;20171;-64
2023/01/17 03:58:43;;;;;;;7.20;6.83;;;2.50;99.90;;;;;;5015641;28;20684;-63
2023/01/17 04:01:09;;;;;;;6.93;6.50;;;2.40;99.90;;;;;;5011588;28;20184;-64
2023/01/17 04:03:34;;;;;;;7.17;6.87;;;2.40;99.90;;;;;;5025385;28;20199;-64
2023/01/17 04:06:00;;;;;;;7.30;6.80;;;2.40;99.90;;;;;;5031656;28;20182;-64
2023/01/17 04:08:26;;;;;;;7.90;7.50;;;2.40;99.90;;;;;;5019140;28;20257;-64
2023/01/17 04:10:51;;;;;;;7.47;7.17;;;2.40;99.90;;;;;;5011389;28;20168;-64
2023/01/17 04:13:17;;;;;;;6.77;6.47;;;2.40;99.90;;;;;;5022102;28;20199;-64
2023/01/17 04:15:48;;;;;;;8.07;7.67;;;2.40;99.90;;;;;;5037711;28;20180;-64
2023/01/17 04:18:17;;;;;;;6.80;6.50;;;2.40;99.90;;;;;;5028444;28;20184;-64
2023/01/17 04:20:43;;;;;;;7.27;6.97;;;2.40;99.90;;;;;;5017839;28;20195;-64
2023/01/17 04:23:09;;;;;;;8.90;8.50;;;2.40;99.90;;;;;;5025294;28;20693;-63
2023/01/17 04:25:36;;;;;;;6.47;6.17;;;2.40;99.90;;;;;;5037923;28;20182;-63
2023/01/17 04:28:05;;;;;;;7.23;6.93;;;2.40;99.90;;;;;;5031164;28;20235;-64
2023/01/17 04:30:31;;;;;;;7.17;6.87;;;2.40;99.90;;;;;;5017730;28;20184;-64
2023/01/17 04:32:57;;;;;;;6.90;6.60;;;2.40;99.90;;;;;;5023040;28;20195;-64
2023/01/17 04:35:23;;;;;;;7.63;7.13;;;2.50;99.90;;;;;;5034550;28;20662;-64
2023/01/17 04:37:50;;;;;;;8.07;7.33;;;2.40;99.90;;;;;;5018204;28;20600;-64
2023/01/17 04:40:16;;;;;;;8.67;7.37;;;2.30;99.90;;;;;;5019182;28;20208;-64
2023/01/17 04:42:44;;;;;;;7.57;7.17;;;2.20;99.90;;;;;;5037537;28;20237;-64
2023/01/17 04:45:13;;;;;;;7.57;7.17;;;2.20;99.90;;;;;;5037463;28;20638;-64
2023/01/17 04:47:39;;;;;;;8.50;8.00;;;2.10;99.90;;;;;;5017902;28;20175;-64
2023/01/17 04:50:05;;;;;;;8.80;8.30;;;2.10;99.90;;;;;;5017912;28;20172;-64
2023/01/17 04:52:31;;;;;;;7.50;7.10;;;2.10;99.90;;;;;;5017839;28;20192;-64
2023/01/17 04:54:57;;;;;;;7.87;7.47;;;2.10;99.90;;;;;;5017826;28;20708;-64
2023/01/17 04:57:23;;;;;;;7.10;6.73;;;2.10;99.90;;;;;;5034920;28;20237;-65
2023/01/17 04:59:49;;;;;;;8.43;7.93;;;2.10;99.90;;;;;;5037405;28;20171;-64
2023/01/17 05:02:15;;;;;;;7.87;7.47;;;2.00;99.90;;;;;;5020497;28;20700;-63
2023/01/17 05:04:41;;;;;;;14.27;7.30;;;2.00;99.90;;;;;;5018174;28;20765;-64
2023/01/17 05:07:06;;;;;;;8.17;7.67;;;2.00;99.90;;;;;;5017192;28;20259;-65
2023/01/17 05:09:32;;;;;;;8.80;8.30;;;2.00;99.90;;;;;;5028843;28;20293;-65
2023/01/17 05:11:57;;;;;;;9.27;8.70;;;2.20;99.90;;;;;;5037589;28;20171;-64
2023/01/17 05:14:26;;;;;;;9.13;8.70;;;2.00;99.90;;;;;;5027333;28;20180;-64
2023/01/17 05:16:55;;;;;;;21.43;8.40;;;2.10;99.90;;;;;;5026033;28;20270;-64
2023/01/17 05:19:22;;;;;;;8.67;8.17;;;2.10;99.90;;;;;;5037181;28;20179;-65
2023/01/17 05:21:48;;;;;;;9.53;9.10;;;2.00;99.90;;;;;;5029478;28;20207;-65
2023/01/17 05:24:14;;;;;;;9.80;8.47;;;2.10;99.90;;;;;;5017800;28;20549;-63
2023/01/17 05:26:40;;;;;;;9.23;8.60;;;2.10;99.90;;;;;;5019449;28;20191;-64
2023/01/17 05:29:06;;;;;;;8.87;8.37;;;2.10;99.90;;;;;;5034006;28;20291;-64
2023/01/17 05:31:31;;;;;;;8.33;7.80;;;2.00;99.90;;;;;;5016914;28;20263;-64
2023/01/17 05:33:57;;;;;;;7.97;7.57;;;2.00;99.90;;;;;;4994757;28;20189;-64
2023/01/17 05:36:23;;;;;;;7.67;7.37;;;2.00;99.90;;;;;;4997538;28;20193;-64
2023/01/17 05:38:48;;;;;;;9.37;8.90;;;2.00;99.90;;;;;;5014058;28;20638;-64
2023/01/17 05:41:14;;;;;;;9.47;8.87;;;2.00;99.90;;;;;;5013897;28;20180;-64
2023/01/17 05:43:39;;;;;;;9.47;8.87;;;2.00;99.90;;;;;;5012810;28;20278;-64
2023/01/17 05:46:05;;;;;;;9.10;8.40;;;2.00;99.90;;;;;;5014975;28;20207;-64
2023/01/17 05:48:30;;;;;;;8.87;8.27;;;1.90;99.90;;;;;;5033829;28;20738;-64
2023/01/17 05:50:56;;;;;;;7.97;7.67;;;1.90;99.90;;;;;;5033578;28;20207;-64
2023/01/17 05:53:22;;;;;;;8.33;7.93;;;1.80;99.90;;;;;;5014525;28;20195;-64
2023/01/17 05:55:48;;;;;;;7.80;7.40;;;1.80;99.90;;;;;;5014020;28;20177;-64
2023/01/17 05:58:19;;;;;;;8.97;8.47;;;1.70;99.90;;;;;;5031182;28;20225;-64
2023/01/17 06:00:45;;;;;;;8.47;8.07;;;1.60;99.90;;;;;;5032989;28;20190;-64
2023/01/17 06:03:11;;;;;;;9.03;8.50;;;1.60;99.90;;;;;;5033635;28;20195;-64
2023/01/17 06:05:37;;;;;;;8.63;8.23;;;1.60;99.90;;;;;;5020840;28;20195;-64
2023/01/17 06:08:03;;;;;;;8.57;8.03;;;1.50;99.90;;;;;;5013818;28;20208;-64
2023/01/17 06:10:29;;;;;;;9.03;8.63;;;1.50;99.90;;;;;;5023899;28;20190;-64
2023/01/17 06:13:06;;;;;;;7.90;7.60;;;1.50;99.90;;;;;;5033453;28;20623;-63
2023/01/17 06:15:33;;;;;;;8.37;7.87;;;1.40;99.90;;;;;;5022383;28;20187;-64
2023/01/17 06:18:04;;;;;;;9.37;8.67;;;1.30;99.90;;;;;;5013558;28;20186;-64
2023/01/17 06:20:29;;;;;;;7.37;7.07;;;1.40;99.90;;;;;;5018865;28;20653;-64
2023/01/17 06:22:55;;;;;;;8.53;8.03;;;1.40;99.90;;;;;;5019571;28;20200;-64
2023/01/17 06:25:20;;;;;;;7.53;7.20;;;1.30;99.90;;;;;;5013498;28;20183;-64
2023/01/17 06:27:46;;;;;;;7.33;6.93;;;1.30;99.90;;;;;;5011964;28;20446;-64
2023/01/17 06:30:12;;;;;;;7.73;7.43;;;1.30;99.90;;;;;;5014249;28;20590;-64
2023/01/17 06:32:38;;;;;;;10.30;9.53;;;1.20;99.90;;;;;;5013378;28;20600;-64
2023/01/17 06:35:03;;;;;;;9.00;8.30;;;1.20;99.90;;;;;;5016768;28;20199;-64
2023/01/17 06:37:29;;;;;;;7.77;7.47;;;1.20;99.90;;;;;;5032621;28;20175;-63
2023/01/17 06:39:55;;;;;;;7.40;7.10;;;1.20;99.90;;;;;;5030305;28;20207;-64
2023/01/17 06:42:20;;;;;;;10.03;8.10;;;1.10;99.90;;;;;;5013232;28;20212;-64
2023/01/17 06:44:46;;;;;;;9.03;8.53;;;1.10;99.90;;;;;;5013076;28;20255;-64
2023/01/17 06:47:11;;;;;;;8.23;7.43;;;1.10;99.90;;;;;;5013045;28;20254;-64
2023/01/17 06:49:37;;;;;;;11.77;8.20;;;1.00;99.90;;;;;;5012549;28;20200;-64
2023/01/17 06:52:03;;;;;;;8.63;7.93;;;1.00;99.90;;;;;;5031282;28;20199;-64
2023/01/17 06:54:28;;;;;;;8.80;8.27;;;1.00;99.90;;;;;;5031726;28;20191;-64
2023/01/17 06:56:54;;;;;;;8.50;8.00;;;0.90;99.90;;;;;;5015429;28;20658;-64
2023/01/17 06:59:20;;;;;;;8.27;7.87;;;1.00;99.90;;;;;;5013621;28;20251;-64
2023/01/17 07:01:45;;;;;;;9.63;9.03;;;0.90;99.90;;;;;;5012688;28;20759;-64
2023/01/17 07:04:11;;;;;;;9.03;8.53;;;0.90;99.90;;;;;;5023021;28;20190;-64
2023/01/17 07:06:36;;;;;;;7.70;7.30;;;0.90;99.90;;;;;;5032351;28;20670;-64
2023/01/17 07:09:03;;;;;;;7.87;7.47;;;0.90;99.90;;;;;;5023649;28;20238;-64
2023/01/17 07:11:29;;;;;;;8.43;7.97;;;0.90;99.90;;;;;;5012216;28;20586;-64
2023/01/17 07:13:54;;;;;;;7.47;7.07;;;0.90;99.90;;;;;;5019173;28;20261;-64
2023/01/17 07:16:20;;;;;;;8.57;8.07;;;0.90;99.90;;;;;;5017913;28;20243;-64
2023/01/17 07:18:45;;;;;;;11.80;11.07;;;0.90;99.90;;;;;;5012280;28;20188;-64
2023/01/17 07:21:13;;;;;;;7.50;7.20;;;0.90;99.90;;;;;;5011921;28;20188;-64
2023/01/17 07:23:39;;;;;;;8.20;7.73;;;0.80;99.90;;;;;;5013205;28;20203;-64
2023/01/17 07:26:05;;;;;;;8.40;7.90;;;0.90;99.90;;;;;;5012249;28;20637;-64
2023/01/17 07:28:30;;;;;;;7.63;7.33;;;0.80;99.90;;;;;;5012996;28;20204;-64
2023/01/17 07:30:56;;;;;;;8.97;8.33;;;0.90;99.90;;;;;;5011736;28;20183;-64
2023/01/17 07:33:22;;;;;;;8.50;7.80;;;0.90;99.90;;;;;;5015077;28;20291;-64
2023/01/17 07:35:47;;;;;;;8.57;8.10;;;0.90;99.90;;;;;;5031747;28;20183;-64
2023/01/17 07:38:15;;;;;;;8.67;8.13;;;1.00;99.90;;;;;;5028756;28;20530;-64
2023/01/17 07:40:41;;;;;;;8.10;7.60;;;1.00;99.90;;;;;;5011501;28;20180;-65
2023/01/17 07:43:12;;;;;;;9.13;8.20;;;1.00;99.90;;;;;;5029913;28;20230;-64
2023/01/17 07:45:50;;;;;;;7.33;7.03;;;1.10;99.90;;;;;;5031549;28;20540;-65
2023/01/17 07:48:17;;;;;;;7.43;7.03;;;1.20;99.90;;;;;;5011887;28;20211;-64
2023/01/17 07:50:43;;;;;;;8.03;7.67;;;1.20;99.90;;;;;;5011200;28;20621;-64
2023/01/17 07:53:09;;;;;;;8.93;8.27;;;1.30;99.90;;;;;;5028074;28;20293;-64
2023/01/17 07:55:35;;;;;;;7.80;7.40;;;1.30;99.90;;;;;;5022350;28;20180;-64
2023/01/17 07:58:00;;;;;;;8.07;7.57;;;1.30;99.90;;;;;;5011910;28;20721;-64
2023/01/17 08:00:27;;;;;;;8.63;8.00;;;1.30;99.90;;;;;;5014868;28;20689;-64
2023/01/17 08:03:02;;;;;;;7.63;7.03;;;1.30;99.90;;;;;;5011528;28;20250;-64
2023/01/17 08:05:29;;;;;;;7.77;7.47;;;1.30;99.90;;;;;;5011224;28;20206;-64
2023/01/17 08:07:55;;;;;;;7.80;7.40;;;1.30;99.90;;;;;;5022501;28;20299;-64
2023/01/17 08:10:21;;;;;;;9.90;9.10;;;1.30;99.90;;;;;;5011262;28;20697;-64
2023/01/17 08:12:48;;;;;;;8.30;7.90;;;1.30;99.90;;;;;;5011438;28;20621;-64
2023/01/17 08:15:15;;;;;;;7.50;7.20;;;1.30;99.90;;;;;;5011979;28;20234;-64
2023/01/17 08:17:59;;;;;;;7.27;6.90;;;1.30;99.90;;;;;;5014654;28;20271;-64
2023/01/17 08:20:24;;;;;;;7.37;6.97;;;1.30;99.90;;;;;;5011541;28;20649;-64
2023/01/17 08:22:55;;;;;;;7.03;6.57;;;1.30;99.90;;;;;;5021995;28;20202;-64
2023/01/17 08:25:22;;;;;;;8.10;7.70;;;1.30;99.90;;;;;;5012504;28;20254;-64
2023/01/17 08:27:48;;;;;;;8.10;7.50;;;1.30;99.90;;;;;;5011362;28;20199;-64
2023/01/17 08:30:13;;;;;;;7.80;7.50;;;1.30;99.90;;;;;;5015430;28;20180;-64
2023/01/17 08:32:39;;;;;;;7.93;7.53;;;1.40;99.90;;;;;;5023682;28;20204;-64
2023/01/17 08:35:06;;;;;;;7.90;7.40;;;1.40;99.90;;;;;;5031195;28;20171;-64
2023/01/17 08:37:32;;;;;;;7.43;7.13;;;1.50;99.90;;;;;;5028652;28;20262;-64
2023/01/17 08:39:58;;;;;;;8.30;7.87;;;1.60;99.90;;;;;;5011060;28;20270;-64
2023/01/17 08:42:23;;;;;;;8.80;8.30;;;1.70;99.90;;;;;;5011372;28;20211;-64
2023/01/17 08:44:49;;;;;;;7.80;7.43;;;1.80;99.90;;;;;;5032737;28;20262;-64
2023/01/17 08:47:15;;;;;;;8.10;7.60;;;1.90;99.90;;;;;;5031112;28;20210;-64
2023/01/17 08:49:40;;;;;;;8.73;7.93;;;2.00;99.90;;;;;;5011201;28;20303;-64
2023/01/17 08:52:06;;;;;;;7.00;6.60;;;2.20;99.90;;;;;;5011274;28;20196;-64
2023/01/17 08:54:32;;;;;;;7.40;6.97;;;2.60;99.90;;;;;;5027461;28;20186;-64
2023/01/17 08:56:57;;;;;;;8.10;7.67;;;3.10;99.90;;;;;;5030749;28;20237;-64
2023/01/17 08:59:23;;;;;;;7.43;6.73;;;3.50;99.90;;;;;;5015653;28;20664;-64
2023/01/17 09:01:51;;;;;;;7.27;6.87;;;4.30;99.90;;;;;;5014423;28;20195;-64
2023/01/17 09:04:16;;;;;;;7.13;6.60;;;4.30;99.90;;;;;;5015823;28;20172;-64
2023/01/17 09:06:47;;;;;;;7.33;6.93;;;4.70;99.90;;;;;;5012600;28;20198;-64
2023/01/17 09:09:14;;;;;;;6.60;5.93;;;5.00;99.90;;;;;;5014582;28;20200;-64
2023/01/17 09:11:40;;;;;;;6.27;5.87;;;5.20;99.90;;;;;;5014477;28;20184;-64
2023/01/17 09:14:05;;;;;;;6.27;5.87;;;5.40;99.90;;;;;;5025432;28;20218;-64
2023/01/17 09:16:32;;;;;;;5.97;5.57;;;5.60;99.90;;;;;;5034277;28;20190;-64
2023/01/17 09:18:58;;;;;;;5.90;5.60;;;5.60;99.90;;;;;;5024578;28;20214;-64
2023/01/17 09:21:25;;;;;;;5.90;5.60;;;5.70;99.90;;;;;;5024533;28;20234;-64
2023/01/17 09:23:51;;;;;;;5.43;5.13;;;5.90;99.90;;;;;;5018163;28;20196;-64
2023/01/17 09:26:25;;;;;;;6.30;5.90;;;6.20;99.90;;;;;;5029078;28;20641;-64
2023/01/17 09:28:51;;;;;;;6.50;6.07;;;6.30;99.90;;;;;;5033753;28;20614;-64
2023/01/17 09:31:19;;;;;;;6.83;5.93;;;6.40;99.90;;;;;;5033763;28;20187;-64
2023/01/17 09:33:45;;;;;;;5.47;5.17;;;6.20;99.90;;;;;;5033890;28;20215;-64
2023/01/17 09:36:11;;;;;;;6.50;6.00;;;6.20;99.90;;;;;;5034018;28;20176;-65
2023/01/17 09:38:38;;;;;;;6.23;5.83;;;6.40;99.90;;;;;;5017852;28;20241;-64
2023/01/17 09:41:21;;;;;;;5.63;5.33;;;6.80;99.90;;;;;;5013846;28;20185;-64
2023/01/17 09:43:58;;;;;;;5.80;5.40;;;7.30;99.90;;;;;;5013984;28;20212;-64
2023/01/17 09:46:36;;;;;;;6.47;5.83;;;7.60;99.90;;;;;;5014110;28;20255;-64
2023/01/17 09:49:05;;;;;;;7.53;5.53;;;7.80;99.90;;;;;;5013865;28;20702;-64
2023/01/17 09:51:31;;;;;;;13.80;5.50;;;7.90;99.90;;;;;;5013623;28;20172;-64
2023/01/17 09:53:57;;;;;;;6.37;5.97;;;7.90;99.90;;;;;;5014070;28;20275;-64
2023/01/17 09:56:40;;;;;;;5.93;5.63;;;7.80;99.90;;;;;;5013914;28;20266;-64
2023/01/17 09:59:31;;;;;;;5.00;4.80;;;8.10;99.90;;;;;;5013701;28;20581;-64
2023/01/17 10:02:42;;;;;;;6.17;5.70;;;7.70;99.90;;;;;;5013830;28;20580;-64
2023/01/17 10:05:36;;;;;;;6.00;5.40;;;7.80;99.90;;;;;;4996876;28;20192;-64
2023/01/17 10:08:10;;;;;;;6.23;5.57;;;7.40;99.90;;;;;;5013672;28;20214;-64
2023/01/17 10:10:44;;;;;;;6.20;5.80;;;7.20;99.90;;;;;;5013309;28;20509;-64
2023/01/17 10:13:31;;;;;;;8.53;5.63;;;7.30;99.90;;;;;;5012791;28;20191;-64
2023/01/17 10:16:13;;;;;;;5.97;5.63;;;7.50;99.90;;;;;;5013582;28;20211;-64
2023/01/17 10:19:27;;;;;;;6.27;5.73;;;7.80;99.90;;;;;;5013373;28;20172;-64
2023/01/17 10:22:22;;;;;;;6.07;5.70;;;8.00;99.90;;;;;;5013572;28;20172;-64
2023/01/17 10:24:53;;;;;;;13.20;6.17;;;8.10;99.90;;;;;;5011301;28;20172;-64
2023/01/17 10:27:23;;;;;;;6.20;5.80;;;8.10;99.90;;;;;;5013392;28;20259;-64
2023/01/17 10:29:50;;;;;;;5.30;4.97;;;7.80;99.90;;;;;;5012897;28;20262;-64
2023/01/17 10:32:16;;;;;;;11.03;5.77;;;7.30;99.90;;;;;;5013181;28;20196;-64
2023/01/17 10:34:47;;;;;;;6.20;5.80;;;6.80;99.90;;;;;;5013082;28;20172;-64
2023/01/17 10:37:24;;;;;;;5.70;5.40;;;6.40;99.90;;;;;;5013009;28;20231;-64
2023/01/17 10:39:54;;;;;;;5.77;5.43;;;6.10;99.90;;;;;;5022628;28;20171;-64
2023/01/17 10:42:36;;;;;;;5.87;5.53;;;5.90;99.90;;;;;;5004205;28;20205;-64
2023/01/17 10:45:17;;;;;;;5.93;5.37;;;5.80;99.90;;;;;;4999579;28;20180;-64
2023/01/17 10:47:51;;;;;;;5.73;5.43;;;5.80;99.90;;;;;;5012886;28;20188;-64
2023/01/17 10:50:18;;;;;;;6.30;6.00;;;5.70;99.90;;;;;;5012098;28;20171;-64
2023/01/17 10:53:09;;;;;;;5.50;5.20;;;5.80;99.90;;;;;;5011802;28;20275;-64
2023/01/17 10:55:39;;;;;;;6.03;5.70;;;6.10;99.90;;;;;;5032258;28;20254;-64
2023/01/17 10:58:10;;;;;;;6.93;6.53;;;6.60;99.90;;;;;;5015184;28;20262;-64
2023/01/17 11:00:43;;;;;;;5.93;5.63;;;7.20;99.90;;;;;;5013409;28;20176;-64
2023/01/17 11:03:22;;;;;;;5.10;4.70;;;7.80;99.90;;;;;;5017373;28;20672;-64
2023/01/17 11:06:13;;;;;;;4.97;4.57;;;8.50;99.90;;;;;;5032418;28;20193;-64
2023/01/17 11:08:56;;;;;;;5.13;4.83;;;9.30;99.90;;;;;;5023221;28;20227;-64
2023/01/17 11:11:28;;;;;;;4.90;4.50;;;9.50;99.90;;;;;;5012178;28;20220;-64
2023/01/17 11:13:55;;;;;;;5.53;4.93;;;9.80;99.90;;;;;;5019165;28;20203;-64
2023/01/17 11:16:24;;;;;;;4.60;4.40;;;10.10;99.90;;;;;;5012763;28;20172;-64
2023/01/17 11:19:04;;;;;;;4.53;4.30;;;10.10;99.90;;;;;;5026813;28;20191;-64
2023/01/17 11:21:31;;;;;;;4.93;4.63;;;10.10;99.90;;;;;;5031878;28;20179;-64
2023/01/17 11:24:07;;;;;;;4.50;4.30;;;9.90;99.90;;;;;;5015777;28;20747;-64
2023/01/17 11:26:35;;;;;;;4.73;4.30;;;9.60;99.90;;;;;;5013566;28;20203;-64
2023/01/17 11:29:26;;;;;;;4.90;4.60;;;9.30;99.90;;;;;;5025659;28;20416;-65
2023/01/17 11:31:55;;;;;;;5.73;5.23;;;8.90;99.90;;;;;;4992687;28;20184;-64
2023/01/17 11:34:31;;;;;;;5.23;4.93;;;9.00;99.90;;;;;;4993440;28;20177;-64
2023/01/17 11:37:18;;;;;;;4.60;4.33;;;9.40;99.90;;;;;;5031865;28;20174;-64
2023/01/17 11:39:46;;;;;;;35.87;14.83;;;9.50;99.90;;;;;;5028225;28;20693;-64
2023/01/17 11:42:31;;;;;;;6.13;5.57;;;9.40;99.90;;;;;;5015351;28;20570;-65
2023/01/17 11:45:22;;;;;;;4.77;4.53;;;9.60;99.90;;;;;;5027590;28;20515;-64
2023/01/17 11:47:48;;;;;;;4.77;4.57;;;9.70;99.90;;;;;;5011910;28;20188;-64
2023/01/17 11:50:24;;;;;;;5.83;4.90;;;9.50;99.90;;;;;;5016311;28;20179;-64
2023/01/17 11:52:50;;;;;;;5.17;4.77;;;10.00;99.90;;;;;;5031541;28;20680;-64
2023/01/17 11:55:16;;;;;;;5.00;4.50;;;10.20;99.90;;;;;;5026047;28;20179;-64
2023/01/17 11:57:49;;;;;;;5.27;4.93;;;9.70;99.90;;;;;;5011774;28;20547;-64
2023/01/17 12:00:24;;;;;;;5.40;5.10;;;9.60;99.90;;;;;;5025745;28;20603;-64
2023/01/17 12:03:05;;;;;;;5.27;4.87;;;9.60;99.90;;;;;;5012885;28;20679;-64
2023/01/17 12:05:40;;;;;;;5.77;5.30;;;9.20;99.90;;;;;;5011883;28;20219;-64
2023/01/17 12:08:05;;;;;;;5.73;5.43;;;8.90;99.90;;;;;;5011696;28;20599;-64
2023/01/17 12:11:01;;;;;;;6.10;5.80;;;8.70;99.90;;;;;;5026144;28;20236;-64
2023/01/17 12:14:01;;;;;;;4.97;4.70;;;8.80;99.90;;;;;;5030616;28;20350;-64
2023/01/17 12:17:04;;;;;;;6.83;4.80;;;9.20;99.90;;;;;;4992112;28;20181;-64
2023/01/17 12:19:59;;;;;;;9.33;4.33;;;9.80;99.90;;;;;;5002752;28;20193;-64
2023/01/17 12:22:43;;;;;;;6.10;4.30;;;10.30;99.90;;;;;;5012708;28;20207;-64
2023/01/17 12:25:30;;;;;;;4.07;3.77;;;11.10;99.90;;;;;;5020909;28;20203;-64
2023/01/17 12:28:02;;;;;;;4.27;4.00;;;11.60;99.90;;;;;;5011551;28;20221;-65
2023/01/17 12:31:03;;;;;;;7.10;3.93;;;11.70;99.90;;;;;;5012250;28;20696;-64
2023/01/17 12:33:44;;;;;;;4.97;4.50;;;11.50;99.90;;;;;;5011223;28;20296;-64
2023/01/17 12:36:21;;;;;;;6.73;4.47;;;10.70;99.90;;;;;;5031388;28;20183;-64
2023/01/17 12:38:47;;;;;;;5.00;4.70;;;10.20;99.90;;;;;;5035434;28;20215;-64
2023/01/17 12:42:01;;;;;;;6.33;4.87;;;10.00;99.90;;;;;;5018095;28;20518;-63
2023/01/17 12:44:37;;;;;;;4.63;4.30;;;10.20;99.90;;;;;;5022404;28;20665;-64
2023/01/17 12:47:04;;;;;;;4.47;4.20;;;10.60;99.90;;;;;;5015418;28;20246;-64
2023/01/17 12:49:51;;;;;;;4.40;4.10;;;10.80;99.90;;;;;;5031158;28;20558;-64
2023/01/17 12:52:36;;;;;;;5.97;4.37;;;10.80;99.90;;;;;;5031900;28;20258;-64
2023/01/17 12:55:06;;;;;;;4.50;4.20;;;11.20;99.90;;;;;;5015571;28;20184;-63
2023/01/17 12:57:39;;;;;;;5.47;4.60;;;11.00;99.90;;;;;;5016509;28;20185;-64
2023/01/17 13:00:28;;;;;;;4.50;4.30;;;10.30;99.90;;;;;;5017456;28;20172;-64
2023/01/17 13:03:15;;;;;;;7.63;4.37;;;9.90;99.90;;;;;;5025213;28;20203;-64
2023/01/17 13:05:45;;;;;;;4.60;4.30;;;9.70;99.90;;;;;;5035765;28;20190;-62
2023/01/17 13:08:37;;;;;;;4.73;4.50;;;9.40;99.90;;;;;;5026163;28;20680;-62
2023/01/17 13:11:08;;;;;;;4.93;4.60;;;9.00;99.90;;;;;;5014795;28;20646;-64
2023/01/17 13:13:35;;;;;;;4.80;4.60;;;8.60;99.90;;;;;;5031790;28;20567;-64
2023/01/17 13:16:03;;;;;;;5.63;5.23;;;8.30;99.90;;;;;;5034431;28;20175;-64
2023/01/17 13:18:31;;;;;;;5.50;5.20;;;8.00;99.90;;;;;;5016309;28;20188;-64
2023/01/17 13:21:26;;;;;;;6.10;5.77;;;7.70;99.90;;;;;;5014436;28;20180;-64
2023/01/17 13:24:06;;;;;;;6.20;5.80;;;7.20;99.90;;;;;;5015706;28;20212;-64
2023/01/17 13:26:49;;;;;;;5.63;5.33;;;6.90;99.90;;;;;;5014411;28;20176;-63
2023/01/17 13:29:43;;;;;;;5.43;4.93;;;6.70;99.90;;;;;;4994677;28;20576;-64
2023/01/17 13:32:32;;;;;;;5.60;5.10;;;6.50;99.90;;;;;;4994790;28;20197;-64
2023/01/17 13:35:13;;;;;;;5.40;5.20;;;6.30;99.90;;;;;;5017738;28;20211;-64
2023/01/17 13:38:13;;;;;;;5.20;5.00;;;6.00;99.90;;;;;;5012993;28;20590;-64
2023/01/17 13:40:41;;;;;;;5.43;5.07;;;5.90;99.90;;;;;;4994472;28;20563;-64
2023/01/17 13:43:40;;;;;;;9.87;5.20;;;5.90;99.90;;;;;;5000059;28;20220;-64
2023/01/17 13:46:06;;;;;;;5.40;5.00;;;5.90;99.90;;;;;;5033640;28;20229;-64
2023/01/17 13:48:37;;;;;;;4.80;4.60;;;5.80;99.90;;;;;;5027646;28;20203;-64
2023/01/17 13:51:07;;;;;;;6.43;6.13;;;5.70;99.90;;;;;;5011699;28;20180;-63
2023/01/17 13:53:33;;;;;;;5.17;4.90;;;5.70;99.90;;;;;;5030126;28;20203;-64
2023/01/17 13:56:22;;;;;;;5.50;5.20;;;5.60;99.90;;;;;;5033826;28;20194;-64
2023/01/17 13:58:53;;;;;;;7.77;4.97;;;5.50;99.90;;;;;;5014683;28;20246;-63
2023/01/17 14:01:48;;;;;;;6.00;5.43;;;5.40;99.90;;;;;;5013517;28;20203;-64
2023/01/17 14:04:14;;;;;;;5.07;4.87;;;5.30;99.90;;;;;;4991731;28;20200;-64
2023/01/17 14:06:48;;;;;;;6.13;5.60;;;5.10;99.90;;;;;;4994894;28;20635;-64
2023/01/17 14:09:39;;;;;;;5.57;5.27;;;5.00;99.90;;;;;;5033073;28;20229;-64
2023/01/17 14:12:07;;;;;;;11.83;6.00;;;5.10;99.90;;;;;;5030060;28;20200;-63
2023/01/17 14:14:45;;;;;;;5.20;4.90;;;5.10;99.90;;;;;;5013495;28;20200;-62
2023/01/17 14:17:19;;;;;;;5.37;5.17;;;5.10;99.90;;;;;;5016666;28;20167;-63
2023/01/17 14:19:47;;;;;;;5.90;5.60;;;5.00;99.90;;;;;;5031034;28;20175;-64
2023/01/17 14:22:24;;;;;;;6.63;6.23;;;4.90;99.90;;;;;;5011413;28;20204;-63
2023/01/17 14:25:08;;;;;;;6.27;5.97;;;4.90;99.90;;;;;;5013993;28;20457;-64
2023/01/17 14:27:41;;;;;;;5.90;5.60;;;4.70;99.90;;;;;;5012356;28;20233;-64
2023/01/17 14:30:16;;;;;;;5.67;5.43;;;4.70;99.90;;;;;;5013106;28;20180;-64
2023/01/17 14:33:00;;;;;;;6.87;6.33;;;4.60;99.90;;;;;;5012949;28;20273;-64
2023/01/17 14:35:35;;;;;;;6.07;5.30;;;4.50;99.90;;;;;;5013340;28;20202;-64
2023/01/17 14:38:04;;;;;;;6.60;6.13;;;4.40;99.90;;;;;;5013197;28;20241;-63